createdAt,value
2023-09-30T00:01:49.150Z,99744.84
2023-09-30T00:04:16.258Z,99746.19
2023-09-30T00:06:43.572Z,99720.19
2023-09-30T00:09:10.471Z,99739.47
2023-09-30T00:11:37.397Z,99733.09
2023-09-30T00:14:05.610Z,99720.81
2023-09-30T00:16:33.449Z,99714.94
2023-09-30T00:19:00.564Z,99728.78
2023-09-30T00:21:27.506Z,99721.75
2023-09-30T00:23:54.963Z,99721.13
2023-09-30T00:26:23.092Z,99710.34
2023-09-30T00:28:49.968Z,99734.13
2023-09-30T00:31:16.841Z,99731.50
2023-09-30T00:33:43.790Z,99718.22
2023-09-30T00:36:12.304Z,99742.03
2023-09-30T00:38:39.622Z,99723.47
2023-09-30T00:41:08.030Z,99741.41
2023-09-30T00:43:35.494Z,99728.09
2023-09-30T00:46:32.559Z,99737.44
2023-09-30T00:49:00.852Z,99747.84
2023-09-30T00:51:28.316Z,99748.78
2023-09-30T00:53:59.929Z,99745.44
2023-09-30T00:56:29.597Z,99737.88
2023-09-30T00:58:57.312Z,99756.13
2023-09-30T01:01:24.869Z,99753.63
2023-09-30T01:03:52.949Z,99743.34
2023-09-30T01:06:21.210Z,99737.47
2023-09-30T01:08:48.248Z,99738.63
2023-09-30T01:11:16.471Z,99749.22
2023-09-30T01:13:45.789Z,99741.16
2023-09-30T01:16:13.439Z,99747.97
2023-09-30T01:18:43.831Z,99754.19
2023-09-30T01:21:12.990Z,99749.97
2023-09-30T01:23:40.428Z,99749.78
2023-09-30T01:26:11.675Z,99752.59
2023-09-30T01:28:39.076Z,99759.78
2023-09-30T01:31:06.496Z,99744.63
2023-09-30T01:33:34.293Z,99752.28
2023-09-30T01:36:01.905Z,99749.34
2023-09-30T01:38:28.888Z,99766.13
2023-09-30T01:40:58.105Z,99747.75
2023-09-30T01:43:27.436Z,99755.53
2023-09-30T01:45:54.419Z,99770.88
2023-09-30T01:48:21.479Z,99770.22
2023-09-30T01:50:49.093Z,99763.94
2023-09-30T01:53:16.218Z,99771.38
2023-09-30T01:55:43.757Z,99768.97
2023-09-30T01:58:13.358Z,99749.88
2023-09-30T02:00:40.758Z,99766.56
2023-09-30T02:03:08.402Z,99755.03
2023-09-30T02:05:35.973Z,99752.16
2023-09-30T02:08:06.993Z,99760.16
2023-09-30T02:10:37.388Z,99769.16
2023-09-30T02:13:07.294Z,99755.41
2023-09-30T02:15:34.610Z,99757.41
2023-09-30T02:18:01.676Z,99763.19
2023-09-30T02:20:31.983Z,99768.44
2023-09-30T02:23:00.119Z,99770.53
2023-09-30T02:25:27.065Z,99759.59
2023-09-30T02:27:55.565Z,99770.94
2023-09-30T02:30:23.128Z,99766.94
2023-09-30T02:32:49.988Z,99786.47
2023-09-30T02:35:17.211Z,99783.13
2023-09-30T02:37:44.382Z,99776.31
2023-09-30T02:40:13.124Z,99781.56
2023-09-30T02:42:41.057Z,99778.56
2023-09-30T02:45:09.832Z,99776.28
2023-09-30T02:47:38.006Z,99788.97
2023-09-30T02:50:13.110Z,99789.38
2023-09-30T02:52:41.947Z,99794.41
2023-09-30T02:55:12.989Z,99787.19
2023-09-30T02:57:40.267Z,99789.88
2023-09-30T03:00:26.858Z,99797.84
2023-09-30T03:02:55.975Z,99803.31
2023-09-30T03:05:24.335Z,99781.16
2023-09-30T03:07:53.922Z,99786.50
2023-09-30T03:10:24.876Z,99788.47
2023-09-30T03:12:52.817Z,99792.69
2023-09-30T03:15:19.864Z,99809.88
2023-09-30T03:17:46.922Z,99816.28
2023-09-30T03:20:15.528Z,99813.75
2023-09-30T03:22:43.932Z,99818.34
2023-09-30T03:25:12.711Z,99831.19
2023-09-30T03:27:40.275Z,99825.09
2023-09-30T03:30:09.419Z,99806.75
2023-09-30T03:32:40.009Z,99821.81
2023-09-30T03:35:08.920Z,99824.50
2023-09-30T03:37:35.782Z,99806.03
2023-09-30T03:40:14.683Z,99822.09
2023-09-30T03:42:45.388Z,99834.25
2023-09-30T03:45:14.579Z,99826.47
2023-09-30T03:47:42.864Z,99815.56
2023-09-30T03:50:15.155Z,99796.25
2023-09-30T03:52:47.483Z,99799.53
2023-09-30T03:55:18.862Z,99793.34
2023-09-30T03:57:48.861Z,99793.34
2023-09-30T04:00:21.259Z,99790.00
2023-09-30T04:02:51.386Z,99789.56
2023-09-30T04:05:20.104Z,99781.88
2023-09-30T04:07:47.759Z,99768.75
2023-09-30T04:10:16.772Z,99794.38
2023-09-30T04:12:44.963Z,99786.56
2023-09-30T04:15:13.614Z,99789.53
2023-09-30T04:17:40.970Z,99782.97
2023-09-30T04:20:11.489Z,99794.84
2023-09-30T04:22:39.199Z,99812.50
2023-09-30T04:25:09.716Z,99806.50
2023-09-30T04:27:38.058Z,99812.28
2023-09-30T04:30:09.953Z,99797.41
2023-09-30T04:32:38.028Z,99801.16
2023-09-30T04:35:06.074Z,99811.44
2023-09-30T04:37:33.188Z,99793.72
2023-09-30T04:40:00.061Z,99812.41
2023-09-30T04:42:27.005Z,99812.59
2023-09-30T04:44:56.823Z,99799.13
2023-09-30T04:47:25.154Z,99825.69
2023-09-30T04:49:52.450Z,99805.88
2023-09-30T04:52:19.496Z,99835.44
2023-09-30T04:54:46.605Z,99844.97
2023-09-30T04:57:13.503Z,99809.25
2023-09-30T04:59:40.496Z,99825.88
2023-09-30T05:02:07.447Z,99837.22
2023-09-30T05:04:34.434Z,99841.03
2023-09-30T05:07:01.403Z,99831.63
2023-09-30T05:09:29.409Z,99837.72
2023-09-30T05:11:56.617Z,99862.66
2023-09-30T05:14:23.546Z,99858.47
2023-09-30T05:16:50.607Z,99855.31
2023-09-30T05:19:17.583Z,99846.13
2023-09-30T05:21:45.998Z,99864.72
2023-09-30T05:24:13.397Z,99843.88
2023-09-30T05:26:40.276Z,99863.06
2023-09-30T05:29:07.197Z,99852.13
2023-09-30T05:31:34.224Z,99843.88
2023-09-30T05:34:01.759Z,99858.28
2023-09-30T05:36:32.235Z,99848.97
2023-09-30T05:38:59.239Z,99861.97
2023-09-30T05:41:28.759Z,99850.94
2023-09-30T05:43:56.334Z,99840.72
2023-09-30T05:46:23.612Z,99848.97
2023-09-30T05:48:50.817Z,99840.25
2023-09-30T05:51:17.704Z,99836.22
2023-09-30T05:53:44.533Z,99840.44
2023-09-30T05:56:13.449Z,99846.41
2023-09-30T05:58:40.412Z,99843.06
2023-09-30T06:01:15.327Z,99848.97
2023-09-30T06:03:42.516Z,99860.25
2023-09-30T06:06:13.719Z,99880.78
2023-09-30T06:08:40.830Z,99864.97
2023-09-30T06:11:07.768Z,99868.03
2023-09-30T06:13:34.745Z,99866.22
2023-09-30T06:16:03.678Z,99866.84
2023-09-30T06:18:30.591Z,99868.72
2023-09-30T06:20:58.988Z,99859.97
2023-09-30T06:23:25.893Z,99898.34
2023-09-30T06:25:53.474Z,99899.69
2023-09-30T06:28:27.001Z,99889.00
2023-09-30T06:30:54.326Z,99899.09
2023-09-30T06:33:23.194Z,99896.84
2023-09-30T06:35:53.219Z,99900.50
2023-09-30T06:38:20.711Z,99914.34
2023-09-30T06:40:48.471Z,99916.78
2023-09-30T06:43:19.091Z,99904.53
2023-09-30T06:45:47.671Z,99913.03
2023-09-30T06:48:14.806Z,99896.88
2023-09-30T06:50:49.535Z,99906.03
2023-09-30T06:53:20.429Z,99896.47
2023-09-30T06:55:47.379Z,99912.75
2023-09-30T06:58:15.137Z,99923.13
2023-09-30T07:00:42.987Z,99911.19
2023-09-30T07:03:10.617Z,99916.31
2023-09-30T07:05:37.797Z,99933.16
2023-09-30T07:08:05.126Z,99932.09
2023-09-30T07:10:32.320Z,99930.34
2023-09-30T07:12:59.263Z,99927.63
2023-09-30T07:15:27.018Z,99918.28
2023-09-30T07:17:54.192Z,99923.72
2023-09-30T07:20:21.629Z,99913.91
2023-09-30T07:23:02.874Z,99901.16
2023-09-30T07:25:34.169Z,99912.00
2023-09-30T07:28:01.966Z,99918.00
2023-09-30T07:30:29.386Z,99933.25
2023-09-30T07:32:56.298Z,99925.56
2023-09-30T07:35:24.657Z,99939.88
2023-09-30T07:37:54.246Z,99947.47
2023-09-30T07:40:23.303Z,99953.34
2023-09-30T07:42:51.155Z,99931.09
2023-09-30T07:45:18.302Z,99947.91
2023-09-30T07:47:47.792Z,99928.81
2023-09-30T07:50:14.896Z,99921.69
2023-09-30T07:52:43.133Z,99924.44
2023-09-30T07:55:10.979Z,99951.13
2023-09-30T07:57:43.287Z,99949.34
2023-09-30T08:00:15.892Z,99932.56
2023-09-30T08:02:43.431Z,99958.19
2023-09-30T08:05:11.518Z,99971.50
2023-09-30T08:07:38.407Z,99965.91
2023-09-30T08:10:07.624Z,99954.09
2023-09-30T08:12:34.977Z,99960.09
2023-09-30T08:15:04.642Z,99956.72
2023-09-30T08:17:32.948Z,99954.09
2023-09-30T08:19:59.899Z,99947.81
2023-09-30T08:22:29.030Z,99941.53
2023-09-30T08:24:56.565Z,99937.88
2023-09-30T08:27:25.446Z,99937.50
2023-09-30T08:29:52.922Z,99935.25
2023-09-30T08:32:19.914Z,99945.44
2023-09-30T08:34:46.780Z,99935.06
2023-09-30T08:37:13.633Z,99939.47
2023-09-30T08:39:41.505Z,99940.41
2023-09-30T08:42:15.020Z,99939.34
2023-09-30T08:44:42.494Z,99941.31
2023-09-30T08:47:10.680Z,99936.94
2023-09-30T08:49:40.602Z,99951.34
2023-09-30T08:52:10.436Z,99934.59
2023-09-30T08:54:37.562Z,99919.44
2023-09-30T08:57:05.602Z,99944.97
2023-09-30T08:59:37.252Z,99936.84
2023-09-30T09:02:09.398Z,99928.03
2023-09-30T09:04:37.964Z,99932.78
2023-09-30T09:07:04.952Z,99933.44
2023-09-30T09:09:33.192Z,99925.47
2023-09-30T09:12:00.187Z,99921.06
2023-09-30T09:14:47.310Z,99923.78
2023-09-30T09:17:15.188Z,99924.44
2023-09-30T09:19:42.074Z,99918.66
2023-09-30T09:22:08.983Z,99935.47
2023-09-30T09:24:47.780Z,99940.72
2023-09-30T09:27:21.442Z,99931.34
2023-09-30T09:29:48.237Z,99930.44
2023-09-30T09:32:17.815Z,99942.84
2023-09-30T09:34:46.517Z,99936.66
2023-09-30T09:37:22.410Z,99941.81
2023-09-30T09:39:58.056Z,99942.75
2023-09-30T09:42:36.956Z,99935.69
2023-09-30T09:45:09.747Z,99933.72
2023-09-30T09:47:37.447Z,99909.78
2023-09-30T09:50:07.110Z,99917.06
2023-09-30T09:52:36.310Z,99925.69
2023-09-30T09:55:04.315Z,99878.13
2023-09-30T09:57:33.185Z,99892.16
2023-09-30T10:00:01.578Z,99919.47
2023-09-30T10:02:30.040Z,99923.06
2023-09-30T10:04:57.808Z,99910.22
2023-09-30T10:07:34.454Z,99905.81
2023-09-30T10:10:06.722Z,99916.44
2023-09-30T10:12:40.368Z,99906.56
2023-09-30T10:15:27.395Z,99907.31
2023-09-30T10:18:13.913Z,99906.09
2023-09-30T10:20:50.377Z,99890.47
2023-09-30T10:23:25.842Z,99899.53
2023-09-30T10:26:15.368Z,99896.38
2023-09-30T10:28:42.676Z,99891.88
2023-09-30T10:31:17.146Z,99890.19
2023-09-30T10:34:02.695Z,99891.78
2023-09-30T10:36:41.411Z,99885.34
2023-09-30T10:39:14.789Z,99886.72
2023-09-30T10:41:48.273Z,99889.25
2023-09-30T10:44:39.992Z,99879.47
2023-09-30T10:47:22.382Z,99886.00
2023-09-30T10:49:50.270Z,99872.34
2023-09-30T10:52:25.957Z,99879.66
2023-09-30T10:54:52.934Z,99866.44
2023-09-30T10:57:29.685Z,99864.09
2023-09-30T11:00:15.354Z,99854.50
2023-09-30T11:02:53.235Z,99863.16
2023-09-30T11:05:32.144Z,99833.16
2023-09-30T11:08:04.767Z,99838.53
2023-09-30T11:10:34.168Z,99845.75
2023-09-30T11:13:02.008Z,99853.06
2023-09-30T11:15:29.015Z,99851.69
2023-09-30T11:18:15.060Z,99853.88
2023-09-30T11:20:43.108Z,99849.94
2023-09-30T11:23:10.371Z,99837.25
2023-09-30T11:25:38.906Z,99838.09
2023-09-30T11:28:20.047Z,99833.63
2023-09-30T11:31:01.106Z,99830.22
2023-09-30T11:33:28.703Z,99837.00
2023-09-30T11:36:06.897Z,99831.22
2023-09-30T11:38:35.958Z,99829.38
2023-09-30T11:41:06.355Z,99835.00
2023-09-30T11:43:35.659Z,99829.75
2023-09-30T11:46:10.678Z,99838.59
2023-09-30T11:48:50.363Z,99839.72
2023-09-30T11:51:17.313Z,99821.72
2023-09-30T11:53:44.197Z,99825.00
2023-09-30T11:56:11.911Z,99838.94
2023-09-30T11:58:40.499Z,99825.50
2023-09-30T12:01:08.062Z,99819.81
2023-09-30T12:03:40.704Z,99833.00
2023-09-30T12:06:08.041Z,99818.06
2023-09-30T12:08:35.032Z,99827.50
2023-09-30T12:11:01.974Z,99827.22
2023-09-30T12:13:28.787Z,99817.53
2023-09-30T12:15:55.780Z,99830.34
2023-09-30T12:18:25.314Z,99824.97
2023-09-30T12:20:53.256Z,99842.47
2023-09-30T12:23:21.099Z,99838.66
2023-09-30T12:25:55.698Z,99835.81
2023-09-30T12:28:33.085Z,99819.75
2023-09-30T12:31:04.349Z,99819.13
2023-09-30T12:33:34.949Z,99808.69
2023-09-30T12:36:01.883Z,99830.19
2023-09-30T12:38:29.430Z,99812.63
2023-09-30T12:40:56.819Z,99819.31
2023-09-30T12:43:24.087Z,99808.38
2023-09-30T12:45:51.130Z,99822.31
2023-09-30T12:48:18.549Z,99810.09
2023-09-30T12:50:46.143Z,99819.94
2023-09-30T12:53:13.157Z,99812.28
2023-09-30T12:55:39.970Z,99811.66
2023-09-30T12:58:06.833Z,99816.13
2023-09-30T13:00:34.175Z,99809.78
2023-09-30T13:03:04.968Z,99817.28
2023-09-30T13:05:32.028Z,99827.25
2023-09-30T13:07:58.915Z,99820.41
2023-09-30T13:10:26.744Z,99813.09
2023-09-30T13:12:55.056Z,99821.50
2023-09-30T13:15:22.936Z,99809.06
2023-09-30T13:17:49.909Z,99803.19
2023-09-30T13:20:17.023Z,99804.50
2023-09-30T13:22:43.822Z,99800.91
2023-09-30T13:25:13.544Z,99788.94
2023-09-30T13:27:41.304Z,99788.94
2023-09-30T13:30:09.687Z,99791.59
2023-09-30T13:32:40.367Z,99785.25
2023-09-30T13:35:08.261Z,99780.91
2023-09-30T13:37:35.498Z,99768.13
2023-09-30T13:40:05.317Z,99779.84
2023-09-30T13:42:32.458Z,99786.28
2023-09-30T13:44:59.320Z,99769.91
2023-09-30T13:47:27.325Z,99771.63
2023-09-30T13:49:54.322Z,99779.28
2023-09-30T13:52:21.211Z,99785.81
2023-09-30T13:54:48.281Z,99770.59
2023-09-30T13:57:15.530Z,99790.63
2023-09-30T13:59:43.345Z,99775.28
2023-09-30T14:02:10.481Z,99772.13
2023-09-30T14:04:37.452Z,99771.06
2023-09-30T14:07:06.341Z,99772.84
2023-09-30T14:09:36.538Z,99786.56
2023-09-30T14:12:05.515Z,99767.06
2023-09-30T14:14:34.991Z,99768.13
2023-09-30T14:17:08.338Z,99744.81
2023-09-30T14:19:36.071Z,99765.53
2023-09-30T14:22:03.053Z,99765.53
2023-09-30T14:24:30.256Z,99760.72
2023-09-30T14:26:57.123Z,99776.66
2023-09-30T14:29:24.064Z,99770.78
2023-09-30T14:31:51.144Z,99756.53
2023-09-30T14:34:17.971Z,99765.03
2023-09-30T14:36:45.305Z,99749.94
2023-09-30T14:39:15.261Z,99745.88
2023-09-30T14:41:47.446Z,99761.81
2023-09-30T14:44:14.297Z,99770.06
2023-09-30T14:46:41.558Z,99745.75
2023-09-30T14:49:08.769Z,99739.91
2023-09-30T14:51:36.581Z,99752.84
2023-09-30T14:54:06.708Z,99743.59
2023-09-30T14:56:33.867Z,99756.66
2023-09-30T14:59:01.298Z,99741.34
2023-09-30T15:01:28.496Z,99735.81
2023-09-30T15:03:55.653Z,99739.19
2023-09-30T15:06:25.418Z,99744.44
2023-09-30T15:08:52.512Z,99756.88
2023-09-30T15:11:19.857Z,99749.34
2023-09-30T15:13:47.292Z,99759.41
2023-09-30T15:16:19.799Z,99752.94
2023-09-30T15:18:48.308Z,99757.63
2023-09-30T15:21:16.430Z,99774.72
2023-09-30T15:23:44.004Z,99755.31
2023-09-30T15:26:11.608Z,99748.41
2023-09-30T15:28:39.090Z,99766.22
2023-09-30T15:31:07.615Z,99761.44
2023-09-30T15:33:35.273Z,99763.22
2023-09-30T15:36:13.470Z,99745.75
2023-09-30T15:38:41.427Z,99757.38
2023-09-30T15:41:08.381Z,99761.31
2023-09-30T15:43:36.616Z,99757.34
2023-09-30T15:46:04.305Z,99752.34
2023-09-30T15:48:31.511Z,99763.00
2023-09-30T15:50:58.608Z,99752.94
2023-09-30T15:53:25.591Z,99756.19
2023-09-30T15:55:53.774Z,99746.69
2023-09-30T15:58:20.637Z,99763.59
2023-09-30T16:00:49.872Z,99767.66
2023-09-30T16:03:17.060Z,99770.19
2023-09-30T16:05:44.032Z,99756.06
2023-09-30T16:08:11.811Z,99758.91
2023-09-30T16:10:38.867Z,99765.16
2023-09-30T16:13:07.794Z,99773.66
2023-09-30T16:15:36.071Z,99749.22
2023-09-30T16:18:03.536Z,99734.78
2023-09-30T16:20:30.774Z,99771.94
2023-09-30T16:22:57.913Z,99772.69
2023-09-30T16:25:24.986Z,99757.22
2023-09-30T16:27:53.961Z,99756.84
2023-09-30T16:30:22.890Z,99766.44
2023-09-30T16:32:49.789Z,99766.66
2023-09-30T16:35:16.728Z,99761.47
2023-09-30T16:37:43.567Z,99770.47
2023-09-30T16:40:10.856Z,99768.16
2023-09-30T16:42:37.748Z,99771.16
2023-09-30T16:45:05.561Z,99770.44
2023-09-30T16:47:33.628Z,99768.50
2023-09-30T16:50:01.563Z,99782.16
2023-09-30T16:52:28.882Z,99777.22
2023-09-30T16:54:56.220Z,99789.44
2023-09-30T16:57:24.016Z,99784.38
2023-09-30T16:59:52.309Z,99793.72
2023-09-30T17:02:19.243Z,99804.13
2023-09-30T17:04:46.284Z,99781.47
2023-09-30T17:07:14.174Z,99792.59
2023-09-30T17:09:41.306Z,99798.81
2023-09-30T17:12:08.273Z,99790.66
2023-09-30T17:14:35.980Z,99805.69
2023-09-30T17:17:04.307Z,99780.31
2023-09-30T17:19:31.416Z,99804.22
2023-09-30T17:21:58.689Z,99804.94
2023-09-30T17:24:25.644Z,99803.06
2023-09-30T17:26:52.831Z,99796.34
2023-09-30T17:29:20.297Z,99795.31
2023-09-30T17:31:47.330Z,99795.44
2023-09-30T17:34:14.285Z,99790.09
2023-09-30T17:36:41.737Z,99802.56
2023-09-30T17:39:09.536Z,99797.72
2023-09-30T17:41:38.828Z,99807.09
2023-09-30T17:44:07.218Z,99791.41
2023-09-30T17:46:35.132Z,99815.34
2023-09-30T17:49:02.290Z,99795.59
2023-09-30T17:51:31.716Z,99807.53
2023-09-30T17:53:59.385Z,99781.91
2023-09-30T17:56:28.085Z,99808.69
2023-09-30T17:58:56.774Z,99806.69
2023-09-30T18:01:25.686Z,99784.81
2023-09-30T18:03:54.626Z,99792.72
2023-09-30T18:06:21.900Z,99804.19
2023-09-30T18:08:48.819Z,99784.44
2023-09-30T18:11:16.264Z,99801.31
2023-09-30T18:13:43.447Z,99806.94
2023-09-30T18:16:10.490Z,99784.88
2023-09-30T18:18:39.102Z,99795.91
2023-09-30T18:21:06.821Z,99798.31
2023-09-30T18:23:34.178Z,99806.72
2023-09-30T18:26:02.583Z,99814.19
2023-09-30T18:28:30.506Z,99807.34
2023-09-30T18:30:59.159Z,99778.81
2023-09-30T18:33:29.531Z,99806.00
2023-09-30T18:35:56.440Z,99822.47
2023-09-30T18:38:23.747Z,99825.84
2023-09-30T18:40:50.858Z,99820.06
2023-09-30T18:43:19.624Z,99828.69
2023-09-30T18:45:50.805Z,99824.41
2023-09-30T18:48:18.452Z,99832.28
2023-09-30T18:50:54.078Z,99833.22
2023-09-30T18:53:22.749Z,99815.56
2023-09-30T18:55:49.936Z,99834.47
2023-09-30T18:58:17.742Z,99829.44
2023-09-30T19:00:48.610Z,99824.75
2023-09-30T19:03:17.923Z,99829.16
2023-09-30T19:05:45.277Z,99831.16
2023-09-30T19:08:12.950Z,99819.59
2023-09-30T19:10:40.018Z,99832.31
2023-09-30T19:13:07.156Z,99837.88
2023-09-30T19:15:35.014Z,99829.47
2023-09-30T19:18:02.495Z,99832.22
2023-09-30T19:20:29.838Z,99839.34
2023-09-30T19:22:57.328Z,99846.72
2023-09-30T19:25:25.689Z,99840.50
2023-09-30T19:27:52.958Z,99841.69
2023-09-30T19:30:20.584Z,99844.47
2023-09-30T19:32:47.560Z,99845.63
2023-09-30T19:35:15.705Z,99845.84
2023-09-30T19:37:42.743Z,99852.75
2023-09-30T19:40:13.617Z,99852.56
2023-09-30T19:42:43.279Z,99853.59
2023-09-30T19:45:12.214Z,99850.13
2023-09-30T19:47:40.473Z,99849.66
2023-09-30T19:50:08.651Z,99840.53
2023-09-30T19:52:35.597Z,99861.00
2023-09-30T19:55:02.684Z,99862.16
2023-09-30T19:57:32.790Z,99856.34
2023-09-30T20:00:00.010Z,99867.25
2023-09-30T20:02:27.125Z,99871.88
2023-09-30T20:04:54.307Z,99866.72
2023-09-30T20:07:22.012Z,99869.47
2023-09-30T20:09:51.436Z,99869.03
2023-09-30T20:12:19.325Z,99882.84
2023-09-30T20:14:46.748Z,99878.22
2023-09-30T20:17:14.586Z,99883.25
2023-09-30T20:19:41.785Z,99873.66
2023-09-30T20:22:19.641Z,99880.03
2023-09-30T20:24:46.883Z,99891.38
2023-09-30T20:27:14.429Z,99888.19
2023-09-30T20:29:41.603Z,99886.50
2023-09-30T20:32:08.807Z,99880.59
2023-09-30T20:34:38.101Z,99882.28
2023-09-30T20:37:05.264Z,99878.91
2023-09-30T20:39:33.656Z,99880.88
2023-09-30T20:42:03.760Z,99880.97
2023-09-30T20:44:42.376Z,99873.41
2023-09-30T20:47:09.849Z,99876.22
2023-09-30T20:49:39.296Z,99874.84
2023-09-30T20:52:07.720Z,99874.09
2023-09-30T20:54:35.347Z,99866.59
2023-09-30T20:57:02.886Z,99885.69
2023-09-30T20:59:34.190Z,99876.06
2023-09-30T21:02:04.896Z,99881.03
2023-09-30T21:04:35.663Z,99873.25
2023-09-30T21:07:13.656Z,99876.19
2023-09-30T21:09:42.992Z,99868.78
2023-09-30T21:12:30.639Z,99861.31
2023-09-30T21:15:00.147Z,99868.22
2023-09-30T21:17:29.429Z,99866.25
2023-09-30T21:19:56.357Z,99859.81
2023-09-30T21:22:24.071Z,99877.41
2023-09-30T21:24:51.193Z,99863.94
2023-09-30T21:27:18.099Z,99873.28
2023-09-30T21:29:45.331Z,99878.72
2023-09-30T21:32:14.526Z,99879.19
2023-09-30T21:34:41.481Z,99898.81
2023-09-30T21:37:08.429Z,99894.59
2023-09-30T21:39:35.440Z,99891.50
2023-09-30T21:42:04.350Z,99908.81
2023-09-30T21:44:31.314Z,99917.59
2023-09-30T21:46:58.525Z,99915.16
2023-09-30T21:49:25.481Z,99909.28
2023-09-30T21:51:52.395Z,99903.47
2023-09-30T21:54:19.328Z,99907.84
2023-09-30T21:56:46.192Z,99916.66
2023-09-30T21:59:13.240Z,99907.03
2023-09-30T22:01:40.197Z,99897.94
2023-09-30T22:04:07.215Z,99898.09
2023-09-30T22:06:34.169Z,99899.31
2023-09-30T22:09:00.998Z,99911.09
2023-09-30T22:11:27.808Z,99904.25
2023-09-30T22:13:54.702Z,99916.50
2023-09-30T22:16:24.194Z,99912.13
2023-09-30T22:18:52.880Z,99909.59
2023-09-30T22:21:19.793Z,99904.78
2023-09-30T22:23:46.680Z,99912.31
2023-09-30T22:26:14.091Z,99916.88
2023-09-30T22:28:41.289Z,99917.88
2023-09-30T22:31:08.365Z,99916.41
2023-09-30T22:33:35.222Z,99914.13
2023-09-30T22:36:02.040Z,99924.19
2023-09-30T22:38:29.635Z,99925.47
2023-09-30T22:40:56.470Z,99922.50
2023-09-30T22:43:25.777Z,99932.22
2023-09-30T22:45:52.817Z,99923.97
2023-09-30T22:48:19.730Z,99932.31
2023-09-30T22:50:46.590Z,99937.03
2023-09-30T22:53:13.429Z,99933.84
2023-09-30T22:55:41.166Z,99943.63
2023-09-30T22:58:07.993Z,99927.44
2023-09-30T23:00:34.868Z,99936.06
2023-09-30T23:03:01.837Z,99926.88
2023-09-30T23:05:29.405Z,99941.09
2023-09-30T23:07:56.771Z,99914.81
2023-09-30T23:10:24.152Z,99939.66
2023-09-30T23:12:51.354Z,99933.63
2023-09-30T23:15:20.244Z,99933.84
2023-09-30T23:17:49.686Z,99925.44
2023-09-30T23:20:23.406Z,99915.50
2023-09-30T23:22:53.850Z,99939.53
2023-09-30T23:25:44.440Z,99928.31
2023-09-30T23:28:11.767Z,99931.03
2023-09-30T23:30:39.321Z,99925.97
2023-09-30T23:33:08.210Z,99927.81
2023-09-30T23:35:36.395Z,99933.28
2023-09-30T23:38:03.880Z,99932.56
2023-09-30T23:40:37.326Z,99935.41
2023-09-30T23:43:05.151Z,99941.81
2023-09-30T23:45:35.653Z,99935.56
2023-09-30T23:48:05.318Z,99939.25
2023-09-30T23:50:36.366Z,99935.03
2023-09-30T23:53:04.740Z,99936.81
2023-09-30T23:55:32.018Z,99908.41
2023-09-30T23:57:59.225Z,99933.69
